Time;durP1;ratioP1;P1;durP2;ratioP2;P2;SDS_P1;SDS_P2;PMS_P1;PMS_P2;Temp;Humidity;BMP_temperature;BMP_pressure;BME280_temperature;BME280_humidity;BME280_pressure;Samples;Min_cycle;Max_cycle;Signal;HPM_P1;HPM_P2
2023/12/20 00:00:12;;;;;;;;;12.67;11.00;;;;;14.34;100.00;101575.69;2079080;28;45138;-59
2023/12/20 00:01:12;;;;;;;;;10.00;8.67;;;;;14.35;100.00;101576.59;2078243;28;44958;-58
2023/12/20 00:02:13;;;;;;;;;11.00;11.00;;;;;14.35;100.00;101580.13;2076412;28;44991;-56
2023/12/20 00:03:13;;;;;;;;;10.67;10.67;;;;;14.26;100.00;101575.03;2077790;28;45533;-58
2023/12/20 00:04:14;;;;;;;;;8.33;8.33;;;;;14.24;100.00;101576.84;2079076;28;45031;-58
2023/12/20 00:05:14;;;;;;;;;11.00;10.33;;;;;14.24;100.00;101586.66;2079662;28;44976;-57
2023/12/20 00:06:15;;;;;;;;;8.33;8.33;;;;;14.23;100.00;101588.44;2079560;28;44977;-57
2023/12/20 00:07:15;;;;;;;;;8.00;8.00;;;;;14.21;100.00;101589.38;2079121;28;44871;-58
2023/12/20 00:08:16;;;;;;;;;6.33;6.33;;;;;14.21;100.00;101586.69;2079041;28;44831;-57
2023/12/20 00:09:16;;;;;;;;;9.33;8.33;;;;;14.19;100.00;101585.88;2079390;28;44882;-59
2023/12/20 00:10:17;;;;;;;;;8.67;7.67;;;;;14.20;100.00;101583.16;2079405;28;45406;-58
2023/12/20 00:11:17;;;;;;;;;9.00;8.00;;;;;14.18;100.00;101586.78;2079445;28;45040;-57
2023/12/20 00:12:18;;;;;;;;;9.00;9.00;;;;;14.17;100.00;101591.25;2079820;28;44966;-59
2023/12/20 00:13:18;;;;;;;;;8.00;7.67;;;;;14.19;100.00;101599.22;2079054;28;45324;-58
2023/12/20 00:14:18;;;;;;;;;7.00;7.00;;;;;14.16;100.00;101600.16;2079332;28;44958;-59
2023/12/20 00:15:19;;;;;;;;;8.33;8.33;;;;;14.15;100.00;101606.41;2079251;28;44880;-58
2023/12/20 00:16:19;;;;;;;;;10.33;9.00;;;;;14.13;100.00;101601.13;2078978;28;44895;-58
2023/12/20 00:17:20;;;;;;;;;6.00;6.00;;;;;14.12;100.00;101599.38;2079371;28;44868;-59
2023/12/20 00:18:20;;;;;;;;;8.33;7.67;;;;;14.14;100.00;101594.00;2079641;28;44956;-58
2023/12/20 00:19:21;;;;;;;;;6.00;6.00;;;;;14.13;100.00;101601.13;2069262;28;44969;-58
2023/12/20 00:20:21;;;;;;;;;6.00;6.00;;;;;14.12;100.00;101606.50;2071629;28;44835;-58
2023/12/20 00:21:22;;;;;;;;;7.67;7.67;;;;;14.17;100.00;101609.06;2078973;28;44871;-57
2023/12/20 00:22:23;;;;;;;;;7.33;4.67;;;;;14.19;100.00;101609.91;2079579;28;45044;-54
2023/12/20 00:23:23;;;;;;;;;6.67;6.67;;;;;14.19;100.00;101612.56;2079275;28;45075;-51
2023/12/20 00:24:24;;;;;;;;;5.00;5.00;;;;;14.17;100.00;101607.25;2079160;28;45260;-54
2023/12/20 00:25:24;;;;;;;;;4.00;4.00;;;;;14.14;100.00;101604.66;2079677;28;45321;-55
2023/12/20 00:26:25;;;;;;;;;5.00;5.00;;;;;14.12;100.00;101604.72;2079473;28;45043;-54
2023/12/20 00:27:25;;;;;;;;;5.00;5.00;;;;;14.10;100.00;101611.88;2088734;28;44835;-57
2023/12/20 00:28:26;;;;;;;;;4.67;4.67;;;;;14.10;100.00;101614.53;2088772;28;44973;-60
2023/12/20 00:29:26;;;;;;;;;5.67;5.67;;;;;14.09;100.00;101609.22;2088451;28;45002;-60
2023/12/20 00:30:27;;;;;;;;;5.67;5.67;;;;;14.09;100.00;101615.44;2088687;28;44952;-58
2023/12/20 00:31:27;;;;;;;;;4.00;4.00;;;;;14.07;100.00;101613.72;2088901;28;44900;-57
2023/12/20 00:32:28;;;;;;;;;4.33;4.33;;;;;13.99;100.00;101611.22;2087317;28;45011;-58
2023/12/20 00:33:28;;;;;;;;;4.00;3.00;;;;;13.99;100.00;101624.56;2088812;28;45022;-59
2023/12/20 00:34:29;;;;;;;;;5.00;4.67;;;;;14.03;100.00;101622.72;2088620;28;45079;-58
2023/12/20 00:35:29;;;;;;;;;4.33;4.33;;;;;14.09;100.00;101612.75;2088587;28;45170;-59
2023/12/20 00:36:30;;;;;;;;;4.67;4.67;;;;;14.12;100.00;101617.19;2087479;28;45080;-59
2023/12/20 00:37:30;;;;;;;;;6.33;6.33;;;;;14.12;100.00;101615.38;2088243;28;44741;-60
2023/12/20 00:38:31;;;;;;;;;4.00;4.00;;;;;14.14;100.00;101616.22;2088844;28;44786;-59
2023/12/20 00:39:32;;;;;;;;;5.00;5.00;;;;;14.14;100.00;101610.88;2084396;28;44890;-58
2023/12/20 00:40:33;;;;;;;;;4.00;4.00;;;;;14.14;100.00;101621.56;2088294;28;44962;-56
2023/12/20 00:41:33;;;;;;;;;5.67;4.33;;;;;14.13;100.00;101618.94;2089318;28;44820;-59
2023/12/20 00:42:35;;;;;;;;;4.00;3.00;;;;;14.15;100.00;101625.09;2088488;28;45052;-58
2023/12/20 00:43:36;;;;;;;;;5.25;4.25;;;;;14.12;100.00;101631.41;2088071;28;44845;-60
2023/12/20 00:44:36;;;;;;;;;4.33;4.00;;;;;14.13;100.00;101627.81;2088036;28;44989;-58
2023/12/20 00:45:37;;;;;;;;;4.67;4.67;;;;;14.09;100.00;101630.56;2088998;28;44838;-56
2023/12/20 00:46:37;;;;;;;;;5.00;5.00;;;;;14.07;100.00;101630.59;2088177;28;45012;-59
2023/12/20 00:47:38;;;;;;;;;4.00;4.00;;;;;14.07;100.00;101632.41;2092060;28;44983;-57
2023/12/20 00:48:38;;;;;;;;;3.67;3.33;;;;;14.06;100.00;101627.97;2090413;28;44979;-58
2023/12/20 00:49:39;;;;;;;;;2.00;2.00;;;;;14.06;100.00;101631.50;2088347;28;44928;-58
2023/12/20 00:50:39;;;;;;;;;3.00;3.00;;;;;14.05;100.00;101623.53;2087820;28;44887;-57
2023/12/20 00:51:40;;;;;;;;;1.33;1.33;;;;;14.07;100.00;101637.72;2088086;28;44993;-57
2023/12/20 00:52:40;;;;;;;;;2.00;2.00;;;;;14.04;100.00;101627.13;2088342;28;44903;-59
2023/12/20 00:53:41;;;;;;;;;2.00;2.00;;;;;14.05;100.00;101635.09;2087554;28;44866;-59
2023/12/20 00:54:41;;;;;;;;;2.00;1.00;;;;;14.09;100.00;101622.56;2081414;28;45018;-57
2023/12/20 00:55:44;;;;;;;;;2.00;2.00;;;;;14.03;100.00;101628.91;2087795;28;44958;-55
2023/12/20 00:56:44;;;;;;;;;3.50;2.75;;;;;14.01;100.00;101629.88;2087875;28;45112;-58
2023/12/20 00:57:45;;;;;;;;;2.00;2.00;;;;;14.01;100.00;101627.19;2087868;28;44938;-58
2023/12/20 00:58:45;;;;;;;;;2.00;2.00;;;;;14.01;100.00;101630.75;2087671;28;44937;-57
2023/12/20 00:59:46;;;;;;;;;1.00;1.00;;;;;13.96;100.00;101621.94;2088510;28;44957;-58
2023/12/20 01:00:46;;;;;;;;;1.00;1.00;;;;;13.93;100.00;101626.47;2088325;28;45199;-58
2023/12/20 01:01:47;;;;;;;;;2.00;1.67;;;;;13.92;100.00;101622.94;2086636;28;45061;-58
2023/12/20 01:02:49;;;;;;;;;1.00;1.00;;;;;13.91;100.00;101622.97;2086897;28;44894;-57
2023/12/20 01:03:51;;;;;;;;;2.25;2.25;;;;;13.89;100.00;101625.66;2071028;28;44969;-59
2023/12/20 01:04:51;;;;;;;;;1.50;1.50;;;;;13.87;100.00;101631.94;2068901;28;45060;-59
2023/12/20 01:05:52;;;;;;;;;3.67;2.00;;;;;13.88;100.00;101642.59;2080560;28;44968;-56
2023/12/20 01:06:53;;;;;;;;;2.00;2.00;;;;;13.86;100.00;101628.41;2088734;28;45026;-57
2023/12/20 01:07:53;;;;;;;;;1.00;0.67;;;;;13.72;100.00;101630.44;2088672;28;44779;-60
2023/12/20 01:08:54;;;;;;;;;1.00;1.00;;;;;13.82;100.00;101619.56;2088346;28;44802;-58
2023/12/20 01:09:54;;;;;;;;;1.67;1.00;;;;;13.83;100.00;101618.66;2088592;28;45090;-57
2023/12/20 01:10:54;;;;;;;;;1.00;1.00;;;;;13.83;100.00;101620.44;2088203;28;44945;-58
2023/12/20 01:11:55;;;;;;;;;2.33;1.00;;;;;13.88;100.00;101617.69;2084655;28;44815;-57
2023/12/20 01:12:56;;;;;;;;;1.00;1.00;;;;;13.88;100.00;101625.69;2088149;28;44806;-56
2023/12/20 01:13:56;;;;;;;;;1.67;1.33;;;;;13.83;100.00;101629.31;2088515;28;45027;-59
2023/12/20 01:14:58;;;;;;;;;1.00;1.00;;;;;13.82;100.00;101629.34;2082752;28;45733;-58
2023/12/20 01:15:59;;;;;;;;;3.00;1.00;;;;;13.79;100.00;101632.97;2082415;28;44912;-60
2023/12/20 01:16:59;;;;;;;;;1.33;1.33;;;;;13.79;100.00;101638.31;2088498;28;44907;-59
2023/12/20 01:18:00;;;;;;;;;2.00;1.33;;;;;13.79;100.00;101638.31;2087977;28;44912;-59
2023/12/20 01:19:00;;;;;;;;;1.00;1.00;;;;;13.78;100.00;101641.00;2088318;28;45106;-59
2023/12/20 01:20:01;;;;;;;;;1.00;0.00;;;;;13.76;100.00;101646.38;2088462;28;44866;-58
2023/12/20 01:21:05;;;;;;;;;2.00;0.67;;;;;13.79;100.00;101650.78;2088263;28;44929;-58
2023/12/20 01:22:05;;;;;;;;;0.75;0.75;;;;;13.75;100.00;101649.09;2088552;28;44952;-59
2023/12/20 01:23:06;;;;;;;;;1.67;1.00;;;;;13.72;100.00;101650.03;2088059;28;45022;-57
2023/12/20 01:24:06;;;;;;;;;2.33;2.00;;;;;13.70;100.00;101645.63;2087855;28;45294;-59
2023/12/20 01:25:07;;;;;;;;;1.00;1.00;;;;;13.69;100.00;101641.19;2088160;28;44857;-59
2023/12/20 01:26:07;;;;;;;;;3.00;3.00;;;;;13.66;100.00;101652.81;2086221;28;44895;-58
2023/12/20 01:27:08;;;;;;;;;5.00;5.00;;;;;13.61;100.00;101654.69;2086784;28;44895;-59
2023/12/20 01:28:08;;;;;;;;;2.00;2.00;;;;;13.60;100.00;101658.28;2086587;28;44980;-59
2023/12/20 01:29:09;;;;;;;;;3.67;3.33;;;;;13.59;100.00;101653.81;2088318;28;44931;-58
2023/12/20 01:30:10;;;;;;;;;2.50;2.00;;;;;13.58;100.00;101651.19;2088319;28;44807;-58
2023/12/20 01:31:11;;;;;;;;;1.00;1.00;;;;;13.55;100.00;101655.66;2086710;28;44931;-59
2023/12/20 01:32:11;;;;;;;;;3.33;3.00;;;;;13.51;100.00;101648.66;2082288;28;45213;-58
2023/12/20 01:33:12;;;;;;;;;1.33;1.33;;;;;13.53;100.00;101644.16;2088505;28;44961;-59
2023/12/20 01:34:12;;;;;;;;;1.00;1.00;;;;;13.49;100.00;101646.94;2088119;28;44791;-58
2023/12/20 01:35:13;;;;;;;;;2.00;2.00;;;;;13.51;100.00;101640.66;2088620;28;44878;-59
2023/12/20 01:36:14;;;;;;;;;2.00;1.00;;;;;13.48;100.00;101643.38;2088360;28;44922;-58
2023/12/20 01:37:14;;;;;;;;;1.33;1.33;;;;;13.46;100.00;101649.63;2087911;28;44871;-58
2023/12/20 01:38:15;;;;;;;;;2.00;1.33;;;;;13.50;100.00;101644.22;2086643;28;44875;-58
2023/12/20 01:39:15;;;;;;;;;4.00;4.00;;;;;13.47;100.00;101646.97;2087067;28;44868;-58
2023/12/20 01:40:16;;;;;;;;;5.00;3.00;;;;;13.47;100.00;101644.28;2087993;28;44957;-57
2023/12/20 01:41:17;;;;;;;;;2.00;2.00;;;;;13.49;100.00;101638.94;2088306;28;44885;-56
2023/12/20 01:42:18;;;;;;;;;1.00;1.00;;;;;13.48;100.00;101645.16;2087796;28;44960;-57
2023/12/20 01:43:18;;;;;;;;;2.00;2.00;;;;;13.46;100.00;101638.97;2083536;28;44957;-58
2023/12/20 01:44:19;;;;;;;;;1.33;1.33;;;;;13.45;100.00;101639.88;2085942;28;44896;-57
2023/12/20 01:45:19;;;;;;;;;4.00;4.00;;;;;13.46;100.00;101649.63;2084182;28;44847;-58
2023/12/20 01:46:20;;;;;;;;;4.00;2.67;;;;;13.47;100.00;101651.41;2088142;28;45077;-58
2023/12/20 01:47:22;;;;;;;;;2.25;2.00;;;;;13.48;100.00;101658.50;2093966;28;44864;-58
2023/12/20 01:48:24;;;;;;;;;3.00;1.00;;;;;13.46;100.00;101650.50;2089469;28;44968;-59
2023/12/20 01:49:25;;;;;;;;;1.25;1.00;;;;;13.44;100.00;101652.31;2088679;28;44920;-59
2023/12/20 01:50:26;;;;;;;;;1.00;1.00;;;;;13.43;100.00;101653.22;2088060;28;44965;-58
2023/12/20 01:51:27;;;;;;;;;0.75;0.75;;;;;13.42;100.00;101651.47;2087746;28;45004;-59
2023/12/20 01:52:27;;;;;;;;;1.25;1.25;;;;;13.42;100.00;101656.81;2088710;28;44957;-58
2023/12/20 01:53:28;;;;;;;;;2.00;1.00;;;;;13.40;100.00;101655.97;2085459;28;45016;-58
2023/12/20 01:54:29;;;;;;;;;1.25;1.00;;;;;13.39;100.00;101653.34;2087955;28;44862;-58
2023/12/20 01:55:32;;;;;;;;;2.00;1.00;;;;;13.40;100.00;101663.09;2087728;28;44953;-59
2023/12/20 01:56:33;;;;;;;;;0.50;0.50;;;;;13.40;100.00;101663.09;2087788;28;44965;-59
2023/12/20 01:57:34;;;;;;;;;2.75;1.00;;;;;13.38;100.00;101659.56;2087788;28;44893;-59
2023/12/20 01:58:39;;;;;;;;;1.00;1.00;;;;;13.37;100.00;101669.34;2088378;28;44948;-59
2023/12/20 01:59:40;;;;;;;;;1.75;1.75;;;;;13.37;100.00;101658.69;2087986;28;44969;-58
2023/12/20 02:00:41;;;;;;;;;1.25;1.25;;;;;13.37;100.00;101663.16;2086791;28;47882;-60
2023/12/20 02:01:41;;;;;;;;;1.00;1.00;;;;;13.37;100.00;101661.38;2087272;28;44869;-58
2023/12/20 02:02:44;;;;;;;;;1.00;1.00;;;;;13.38;100.00;101660.44;2087741;28;44890;-59
2023/12/20 02:03:45;;;;;;;;;1.00;1.00;;;;;13.36;100.00;101672.94;2079715;28;45135;-59
2023/12/20 02:04:47;;;;;;;;;1.50;1.50;;;;;13.33;100.00;101672.09;2086140;28;44916;-59
2023/12/20 02:05:48;;;;;;;;;1.75;1.75;;;;;13.36;100.00;101672.06;2088094;28;44807;-59
2023/12/20 02:06:52;;;;;;;;;0.67;0.00;;;;;13.37;100.00;101673.81;2088678;28;44873;-59
2023/12/20 02:07:52;;;;;;;;;3.50;1.75;;;;;13.36;100.00;101672.94;2088650;28;44865;-59
2023/12/20 02:08:53;;;;;;;;;1.00;1.00;;;;;13.35;100.00;101673.84;2089527;28;45021;-58
2023/12/20 02:09:53;;;;;;;;;1.00;0.33;;;;;13.35;100.00;101672.97;2089527;28;44908;-59
2023/12/20 02:10:56;;;;;;;;;1.00;1.00;;;;;13.38;100.00;101678.22;2089286;28;45015;-59
2023/12/20 02:11:56;;;;;;;;;3.00;3.00;;;;;13.35;100.00;101675.63;2089317;28;44889;-59
2023/12/20 02:12:57;;;;;;;;;2.67;2.67;;;;;13.34;100.00;101674.75;2089521;28;44985;-57
2023/12/20 02:13:58;;;;;;;;;1.00;1.00;;;;;13.32;100.00;101683.66;2089341;28;44845;-59
2023/12/20 02:14:58;;;;;;;;;2.00;1.67;;;;;13.30;100.00;101686.34;2089647;28;44868;-56
2023/12/20 02:15:59;;;;;;;;;0.00;0.00;;;;;13.31;100.00;101674.78;2089784;28;44893;-58
2023/12/20 02:16:59;;;;;;;;;4.33;2.00;;;;;13.31;100.00;101682.78;2089423;28;45483;-59
2023/12/20 02:18:00;;;;;;;;;2.00;2.00;;;;;13.30;100.00;101678.34;2086799;28;44887;-60
2023/12/20 02:19:00;;;;;;;;;2.00;2.00;;;;;13.30;100.00;101688.16;2088314;28;44886;-60
2023/12/20 02:20:01;;;;;;;;;2.00;1.00;;;;;13.29;100.00;101692.59;2090000;28;44780;-59
2023/12/20 02:21:04;;;;;;;;;2.67;1.33;;;;;13.33;100.00;101696.97;2089124;28;44833;-59
2023/12/20 02:22:10;;;;;;;;;2.00;2.00;;;;;13.34;100.00;101689.84;2086895;28;44898;-59
2023/12/20 02:23:10;;;;;;;;;1.00;1.00;;;;;13.31;100.00;101698.78;2081389;28;44865;-58
2023/12/20 02:24:11;;;;;;;;;2.00;2.00;;;;;13.33;100.00;101696.97;2087392;28;45378;-60
2023/12/20 02:25:11;;;;;;;;;2.00;2.00;;;;;13.33;100.00;101696.06;2088941;28;45008;-58
2023/12/20 02:26:13;;;;;;;;;3.00;2.67;;;;;13.34;100.00;101698.75;2088733;28;44928;-58
2023/12/20 02:27:17;;;;;;;;;3.50;1.00;;;;;13.34;100.00;101695.16;2089121;28;44977;-58
2023/12/20 02:28:18;;;;;;;;;2.00;2.00;;;;;13.34;100.00;101692.50;2089391;28;44825;-58
2023/12/20 02:29:19;;;;;;;;;1.00;1.00;;;;;13.35;100.00;101696.97;2089446;28;44870;-59
2023/12/20 02:30:19;;;;;;;;;3.00;2.00;;;;;13.33;100.00;101698.75;2089354;28;45050;-58
2023/12/20 02:31:23;;;;;;;;;3.00;3.00;;;;;13.35;100.00;101697.84;2087496;28;44943;-58
2023/12/20 02:32:28;;;;;;;;;3.75;2.75;;;;;13.34;100.00;101700.50;2088974;28;44898;-59
2023/12/20 02:33:29;;;;;;;;;2.25;2.25;;;;;13.35;100.00;101699.63;2089735;28;44929;-60
2023/12/20 02:34:29;;;;;;;;;2.00;2.00;;;;;13.34;100.00;101696.09;2087845;28;45032;-59
2023/12/20 02:35:30;;;;;;;;;2.67;2.00;;;;;13.34;100.00;101698.75;2089530;28;44894;-58
2023/12/20 02:36:31;;;;;;;;;1.33;1.33;;;;;13.34;100.00;101697.84;2089728;28;44973;-58
2023/12/20 02:37:33;;;;;;;;;4.00;2.00;;;;;13.35;100.00;101700.50;2089471;28;45251;-59
2023/12/20 02:38:34;;;;;;;;;1.00;1.00;;;;;13.37;100.00;101697.81;2088972;28;44880;-59
2023/12/20 02:39:34;;;;;;;;;2.00;2.00;;;;;13.37;100.00;101700.47;2085375;28;45096;-58
2023/12/20 02:40:35;;;;;;;;;1.00;1.00;;;;;13.39;100.00;101702.19;2086051;28;44951;-59
2023/12/20 02:41:35;;;;;;;;;1.33;1.33;;;;;13.39;100.00;101698.66;2086209;28;45026;-57
2023/12/20 02:42:36;;;;;;;;;1.00;1.00;;;;;13.38;100.00;101700.44;2083402;28;45050;-59
2023/12/20 02:43:36;;;;;;;;;1.67;1.00;;;;;13.38;100.00;101700.44;2084672;28;44921;-59
2023/12/20 02:44:37;;;;;;;;;1.33;1.00;;;;;13.40;100.00;101708.41;2089750;28;44806;-59
2023/12/20 02:45:38;;;;;;;;;1.67;1.67;;;;;13.41;100.00;101711.03;2089505;28;44857;-58
2023/12/20 02:46:38;;;;;;;;;1.00;1.00;;;;;13.41;100.00;101707.50;2089885;28;44870;-58
2023/12/20 02:47:39;;;;;;;;;1.67;1.33;;;;;13.43;100.00;101711.00;2089497;28;44874;-58
2023/12/20 02:48:39;;;;;;;;;2.00;1.33;;;;;13.42;100.00;101703.94;2089458;28;45059;-59
2023/12/20 02:49:40;;;;;;;;;1.33;1.33;;;;;13.39;100.00;101704.88;2083836;28;44866;-58
2023/12/20 02:50:40;;;;;;;;;1.00;1.00;;;;;13.36;100.00;101706.72;2089620;28;45245;-58
2023/12/20 02:51:41;;;;;;;;;2.00;1.00;;;;;13.36;100.00;101704.06;2088911;28;45227;-57
2023/12/20 02:52:45;;;;;;;;;1.50;1.00;;;;;13.34;100.00;101706.75;2089244;28;44961;-59
2023/12/20 02:53:45;;;;;;;;;2.00;2.00;;;;;13.34;100.00;101698.75;2089265;28;44928;-59
2023/12/20 02:54:46;;;;;;;;;1.00;1.00;;;;;13.34;100.00;101700.50;2083687;28;44808;-60
2023/12/20 02:55:46;;;;;;;;;1.00;1.00;;;;;13.32;100.00;101689.88;2089198;28;45104;-58
2023/12/20 02:56:47;;;;;;;;;1.00;1.00;;;;;13.32;100.00;101694.31;2089127;28;45117;-57
2023/12/20 02:57:47;;;;;;;;;2.50;1.25;;;;;13.32;100.00;101702.31;2089072;28;45171;-58
2023/12/20 02:58:48;;;;;;;;;1.33;1.00;;;;;13.31;100.00;101703.22;2088215;28;44892;-58
2023/12/20 02:59:49;;;;;;;;;0.67;0.67;;;;;13.29;100.00;101695.25;2089145;28;44858;-59
2023/12/20 03:00:50;;;;;;;;;1.00;1.00;;;;;13.29;100.00;101695.25;2085951;28;45087;-58
2023/12/20 03:01:51;;;;;;;;;2.25;1.00;;;;;13.27;100.00;101697.09;2088212;28;44847;-57
2023/12/20 03:02:51;;;;;;;;;2.00;2.00;;;;;13.23;100.00;101693.59;2089228;28;44806;-57
2023/12/20 03:03:52;;;;;;;;;1.33;1.33;;;;;13.21;100.00;101691.84;2089169;28;44768;-57
2023/12/20 03:04:52;;;;;;;;;1.00;1.00;;;;;13.28;100.00;101695.28;2089216;28;44795;-58
2023/12/20 03:05:53;;;;;;;;;1.33;1.33;;;;;13.30;100.00;101705.00;2089020;28;44861;-59
2023/12/20 03:06:53;;;;;;;;;3.00;1.67;;;;;13.24;100.00;101700.69;2089057;28;44993;-58
2023/12/20 03:07:53;;;;;;;;;0.33;0.33;;;;;13.24;100.00;101700.69;2087596;28;45011;-58
2023/12/20 03:08:54;;;;;;;;;0.67;0.67;;;;;13.23;100.00;101695.38;2083945;28;44930;-59
2023/12/20 03:09:54;;;;;;;;;1.00;1.00;;;;;13.25;100.00;101706.91;2087667;28;45015;-58
2023/12/20 03:10:55;;;;;;;;;0.00;0.00;;;;;13.26;100.00;101711.31;2089073;28;44845;-58
2023/12/20 03:11:55;;;;;;;;;2.00;1.00;;;;;13.22;100.00;101713.16;2088946;28;44979;-57
2023/12/20 03:12:56;;;;;;;;;1.67;1.00;;;;;13.22;100.00;101705.16;2088776;28;44967;-58
2023/12/20 03:13:57;;;;;;;;;1.00;1.00;;;;;13.22;100.00;101715.81;2088526;28;44826;-59
2023/12/20 03:14:58;;;;;;;;;1.50;1.50;;;;;13.21;100.00;101711.41;2080090;28;45031;-59
2023/12/20 03:15:58;;;;;;;;;2.00;1.00;;;;;13.23;100.00;101704.25;2086063;28;44977;-58
2023/12/20 03:16:59;;;;;;;;;0.33;0.33;;;;;13.25;100.00;101698.91;2089047;28;44917;-59
2023/12/20 03:17:59;;;;;;;;;1.00;1.00;;;;;13.24;100.00;101694.47;2088747;28;45183;-58
2023/12/20 03:18:59;;;;;;;;;1.00;1.00;;;;;13.24;100.00;101698.03;2088813;28;45525;-59
2023/12/20 03:20:00;;;;;;;;;1.00;1.00;;;;;13.23;100.00;101693.59;2089508;28;44913;-58
2023/12/20 03:21:00;;;;;;;;;2.00;1.00;;;;;13.24;100.00;101691.81;2088759;28;44882;-59
2023/12/20 03:22:01;;;;;;;;;0.00;0.00;;;;;13.24;100.00;101698.03;2088893;28;44870;-59
2023/12/20 03:23:02;;;;;;;;;1.00;1.00;;;;;13.23;100.00;101706.91;2096562;28;44819;-57
2023/12/20 03:24:02;;;;;;;;;1.67;0.33;;;;;13.23;100.00;101716.72;2096682;28;44821;-57
2023/12/20 03:25:03;;;;;;;;;2.00;2.00;;;;;13.24;100.00;101706.00;2089396;28;44993;-58
2023/12/20 03:26:07;;;;;;;;;1.00;1.00;;;;;13.30;100.00;101709.47;2089937;28;45020;-58
2023/12/20 03:27:07;;;;;;;;;2.25;1.00;;;;;13.31;100.00;101705.91;2082753;28;45438;-57
2023/12/20 03:28:08;;;;;;;;;1.00;1.00;;;;;13.27;100.00;101705.06;2088779;28;44924;-58
2023/12/20 03:29:09;;;;;;;;;1.00;1.00;;;;;13.26;100.00;101703.31;2087924;28;44994;-58
2023/12/20 03:30:10;;;;;;;;;1.00;1.00;;;;;13.26;100.00;101695.31;2088977;28;44874;-57
2023/12/20 03:31:10;;;;;;;;;1.00;1.00;;;;;13.22;100.00;101694.50;2089152;28;44877;-59
2023/12/20 03:32:11;;;;;;;;;1.00;1.00;;;;;13.23;100.00;101696.25;2087340;28;44949;-57
2023/12/20 03:33:12;;;;;;;;;1.33;1.33;;;;;13.24;100.00;101694.47;2088075;28;44950;-56
2023/12/20 03:34:12;;;;;;;;;2.67;1.00;;;;;13.24;100.00;101695.34;2088192;28;44902;-57
2023/12/20 03:35:13;;;;;;;;;1.00;1.00;;;;;13.24;100.00;101697.13;2087142;28;44949;-60
2023/12/20 03:36:13;;;;;;;;;1.00;1.00;;;;;13.27;100.00;101699.75;2088040;28;45058;-58
2023/12/20 03:37:14;;;;;;;;;0.67;0.00;;;;;13.30;100.00;101705.00;2088699;28;45028;-59
2023/12/20 03:38:14;;;;;;;;;1.00;1.00;;;;;13.32;100.00;101705.00;2089156;28;44949;-56
2023/12/20 03:39:15;;;;;;;;;1.00;1.00;;;;;13.33;100.00;101712.06;2089020;28;45000;-59
2023/12/20 03:40:16;;;;;;;;;3.00;1.00;;;;;13.31;100.00;101709.44;2084660;28;44894;-58
2023/12/20 03:41:16;;;;;;;;;0.33;0.33;;;;;13.30;100.00;101707.69;2080349;28;45129;-57
2023/12/20 03:42:17;;;;;;;;;1.67;1.00;;;;;13.30;100.00;101706.81;2085447;28;44978;-59
2023/12/20 03:43:17;;;;;;;;;2.00;0.00;;;;;13.29;100.00;101711.25;2096991;28;45175;-57
2023/12/20 03:44:18;;;;;;;;;1.67;1.00;;;;;13.28;100.00;101706.84;2096360;28;44821;-55
2023/12/20 03:45:18;;;;;;;;;1.00;1.00;;;;;13.28;100.00;101712.16;2089388;28;44809;-57
2023/12/20 03:46:19;;;;;;;;;3.33;2.00;;;;;13.28;100.00;101704.16;2088604;28;44959;-56
2023/12/20 03:47:20;;;;;;;;;0.00;0.00;;;;;13.29;100.00;101705.94;2087133;28;44901;-56
2023/12/20 03:48:20;;;;;;;;;1.00;1.00;;;;;13.27;100.00;101713.06;2089181;28;44771;-58
2023/12/20 03:49:21;;;;;;;;;2.33;2.00;;;;;13.27;100.00;101710.41;2085919;28;45355;-57
2023/12/20 03:50:24;;;;;;;;;1.00;1.00;;;;;13.28;100.00;101709.50;2087958;28;44851;-57
2023/12/20 03:51:25;;;;;;;;;0.50;0.50;;;;;13.28;100.00;101705.97;2088281;28;44929;-58
2023/12/20 03:52:25;;;;;;;;;2.00;2.00;;;;;13.27;100.00;101701.53;2087975;28;45039;-57
2023/12/20 03:53:26;;;;;;;;;0.33;0.33;;;;;13.26;100.00;101708.66;2088101;28;44952;-56
2023/12/20 03:54:26;;;;;;;;;2.00;1.00;;;;;13.27;100.00;101701.53;2088678;28;45571;-58
2023/12/20 03:55:27;;;;;;;;;1.00;1.00;;;;;13.27;100.00;101718.41;2088539;28;45007;-54
2023/12/20 03:56:27;;;;;;;;;1.00;1.00;;;;;13.26;100.00;101711.31;2088786;28;44885;-56
2023/12/20 03:57:28;;;;;;;;;1.00;1.00;;;;;13.26;100.00;101716.66;2088676;28;44889;-59
2023/12/20 03:58:29;;;;;;;;;3.00;1.33;;;;;13.27;100.00;101722.84;2088946;28;44787;-57
2023/12/20 03:59:30;;;;;;;;;2.00;1.00;;;;;13.25;100.00;101722.88;2087289;28;44861;-58
2023/12/20 04:00:30;;;;;;;;;2.00;1.00;;;;;13.24;100.00;101721.13;2088300;28;44787;-58
2023/12/20 04:01:31;;;;;;;;;1.67;1.00;;;;;13.24;100.00;101714.00;2084841;28;44914;-58
2023/12/20 04:02:31;;;;;;;;;1.67;0.67;;;;;13.20;100.00;101714.06;2076794;28;45127;-58
2023/12/20 04:03:32;;;;;;;;;2.00;1.00;;;;;13.20;100.00;101717.59;2088220;28;44854;-55
2023/12/20 04:04:32;;;;;;;;;2.00;1.00;;;;;13.22;100.00;101717.63;2082776;28;44918;-59
2023/12/20 04:05:33;;;;;;;;;0.00;0.00;;;;;13.17;100.00;101708.75;2088379;28;45090;-58
2023/12/20 04:06:34;;;;;;;;;1.00;1.00;;;;;13.16;100.00;101715.88;2087585;28;44929;-57
2023/12/20 04:07:36;;;;;;;;;1.75;1.00;;;;;13.15;100.00;101707.91;2090018;28;45085;-57
2023/12/20 04:08:36;;;;;;;;;2.25;1.75;;;;;13.13;100.00;101709.72;2087474;28;45188;-59
2023/12/20 04:09:37;;;;;;;;;0.33;0.33;;;;;13.12;100.00;101711.50;2088018;28;44913;-58
2023/12/20 04:10:38;;;;;;;;;0.33;0.00;;;;;13.12;100.00;101700.84;2088586;28;44872;-58
2023/12/20 04:11:38;;;;;;;;;1.00;1.00;;;;;13.12;100.00;101702.63;2087446;28;44966;-56
2023/12/20 04:12:39;;;;;;;;;1.67;0.33;;;;;13.11;100.00;101703.56;2082245;28;44857;-58
2023/12/20 04:13:39;;;;;;;;;2.00;2.00;;;;;13.11;100.00;101703.56;2088576;28;44779;-59
2023/12/20 04:14:40;;;;;;;;;1.33;1.33;;;;;13.06;100.00;101703.59;2085754;28;45041;-58
2023/12/20 04:15:41;;;;;;;;;1.00;1.00;;;;;13.13;100.00;101701.72;2080403;28;44919;-60
2023/12/20 04:16:42;;;;;;;;;2.33;2.00;;;;;13.14;100.00;101701.69;2088087;28;45247;-59
2023/12/20 04:17:43;;;;;;;;;0.50;0.50;;;;;13.16;100.00;101707.00;2088396;28;44968;-59
2023/12/20 04:18:43;;;;;;;;;2.00;1.67;;;;;13.14;100.00;101707.03;2088833;28;44822;-57
2023/12/20 04:19:44;;;;;;;;;1.00;0.67;;;;;13.14;100.00;101707.03;2091845;28;44930;-58
2023/12/20 04:20:45;;;;;;;;;1.00;1.00;;;;;13.16;100.00;101709.66;2089157;28;44882;-59
2023/12/20 04:21:46;;;;;;;;;0.25;0.25;;;;;13.15;100.00;101702.59;2085856;28;45359;-57
2023/12/20 04:22:46;;;;;;;;;2.00;1.50;;;;;13.20;100.00;101712.28;2087674;28;44881;-58
2023/12/20 04:23:47;;;;;;;;;1.00;1.00;;;;;13.22;100.00;101699.84;2088811;28;44829;-59
2023/12/20 04:24:47;;;;;;;;;1.00;1.00;;;;;13.22;100.00;101705.16;2085642;28;44921;-57
2023/12/20 04:25:48;;;;;;;;;2.00;1.00;;;;;13.25;100.00;101720.22;2084137;28;45218;-56
2023/12/20 04:26:48;;;;;;;;;1.00;1.00;;;;;13.25;100.00;101718.44;2088586;28;45050;-59
2023/12/20 04:27:49;;;;;;;;;1.67;0.00;;;;;13.26;100.00;101716.66;2088640;28;44822;-58
2023/12/20 04:28:50;;;;;;;;;3.00;2.00;;;;;13.24;100.00;101718.47;2078606;28;44887;-59
2023/12/20 04:29:50;;;;;;;;;1.67;1.67;;;;;13.23;100.00;101728.25;2079017;28;45666;-60
2023/12/20 04:30:51;;;;;;;;;1.00;1.00;;;;;13.23;100.00;101725.59;2088185;28;44901;-57
2023/12/20 04:31:51;;;;;;;;;0.67;0.67;;;;;13.21;100.00;101730.06;2088204;28;45727;-57
2023/12/20 04:32:52;;;;;;;;;1.33;1.33;;;;;13.22;100.00;101729.16;2088185;28;44897;-59
2023/12/20 04:33:53;;;;;;;;;1.00;1.00;;;;;13.22;100.00;101729.16;2083995;28;44847;-58
2023/12/20 04:34:53;;;;;;;;;0.67;0.67;;;;;13.23;100.00;101728.25;2088785;28;44916;-58
2023/12/20 04:35:54;;;;;;;;;0.00;0.00;;;;;13.23;100.00;101720.25;2088547;28;44980;-59
2023/12/20 04:36:54;;;;;;;;;0.00;0.00;;;;;13.25;100.00;101720.22;2089204;28;44811;-57
2023/12/20 04:37:55;;;;;;;;;3.00;1.00;;;;;13.24;100.00;101714.00;2088590;28;45083;-57
2023/12/20 04:38:56;;;;;;;;;1.00;0.00;;;;;13.21;100.00;101713.16;2087292;28;44944;-58